sensor_id;sensor_type;location;lat;lon;timestamp;P1;P2;P0
69144;PMS7003;56251;50.324;17.574;2023-11-18T00:00:02;5;5;5
69144;PMS7003;56251;50.324;17.574;2023-11-18T00:02:14;1;1;1
69144;PMS7003;56251;50.324;17.574;2023-11-18T00:03:15;5;5;3
69144;PMS7003;56251;50.324;17.574;2023-11-18T00:05:20;5;5;3
69144;PMS7003;56251;50.324;17.574;2023-11-18T00:06:22;7;5;4
69144;PMS7003;56251;50.324;17.574;2023-11-18T00:08:28;4;4;3
69144;PMS7003;56251;50.324;17.574;2023-11-18T00:09:28;3;3;3
69144;PMS7003;56251;50.324;17.574;2023-11-18T00:11:36;6;6;5
69144;PMS7003;56251;50.324;17.574;2023-11-18T00:12:34;5;5;5
69144;PMS7003;56251;50.324;17.574;2023-11-18T00:14:43;7;3;3
69144;PMS7003;56251;50.324;17.574;2023-11-18T00:15:41;13;4;3
69144;PMS7003;56251;50.324;17.574;2023-11-18T00:17:50;3;3;3
69144;PMS7003;56251;50.324;17.574;2023-11-18T00:18:49;2;2;2
69144;PMS7003;56251;50.324;17.574;2023-11-18T00:21:01;3;3;2
69144;PMS7003;56251;50.324;17.574;2023-11-18T00:21:55;3;3;2
69144;PMS7003;56251;50.324;17.574;2023-11-18T00:24:08;3;3;2
69144;PMS7003;56251;50.324;17.574;2023-11-18T00:25:02;1;1;1
69144;PMS7003;56251;50.324;17.574;2023-11-18T00:27:14;3;3;2
69144;PMS7003;56251;50.324;17.574;2023-11-18T00:28:16;4;4;3
69144;PMS7003;56251;50.324;17.574;2023-11-18T00:30:21;5;5;5
69144;PMS7003;56251;50.324;17.574;2023-11-18T00:31:24;8;4;4
69144;PMS7003;56251;50.324;17.574;2023-11-18T00:33:27;4;4;3
69144;PMS7003;56251;50.324;17.574;2023-11-18T00:34:30;4;3;3
69144;PMS7003;56251;50.324;17.574;2023-11-18T00:36:33;1;1;1
69144;PMS7003;56251;50.324;17.574;2023-11-18T00:37:36;2;2;1
69144;PMS7003;56251;50.324;17.574;2023-11-18T00:39:40;4;4;4
69144;PMS7003;56251;50.324;17.574;2023-11-18T00:40:42;10;8;6
69144;PMS7003;56251;50.324;17.574;2023-11-18T00:42:47;6;6;4
69144;PMS7003;56251;50.324;17.574;2023-11-18T00:43:48;4;4;3
69144;PMS7003;56251;50.324;17.574;2023-11-18T00:45:53;3;3;3
69144;PMS7003;56251;50.324;17.574;2023-11-18T00:46:54;5;5;4
69144;PMS7003;56251;50.324;17.574;2023-11-18T00:48:59;4;4;3
69144;PMS7003;56251;50.324;17.574;2023-11-18T00:50:02;5;4;4
69144;PMS7003;56251;50.324;17.574;2023-11-18T00:52:05;5;5;3
69144;PMS7003;56251;50.324;17.574;2023-11-18T00:53:10;3;3;2
69144;PMS7003;56251;50.324;17.574;2023-11-18T00:55:12;5;5;4
69144;PMS7003;56251;50.324;17.574;2023-11-18T00:56:16;4;4;3
69144;PMS7003;56251;50.324;17.574;2023-11-18T00:58:18;5;4;4
69144;PMS7003;56251;50.324;17.574;2023-11-18T00:59:23;4;4;4
69144;PMS7003;56251;50.324;17.574;2023-11-18T01:01:25;3;3;2
69144;PMS7003;56251;50.324;17.574;2023-11-18T01:02:29;4;4;4
69144;PMS7003;56251;50.324;17.574;2023-11-18T01:04:31;5;5;5
69144;PMS7003;56251;50.324;17.574;2023-11-18T01:05:36;5;4;4
69144;PMS7003;56251;50.324;17.574;2023-11-18T01:07:38;3;3;3
69144;PMS7003;56251;50.324;17.574;2023-11-18T01:08:44;4;4;4
69144;PMS7003;56251;50.324;17.574;2023-11-18T01:10:50;3;3;3
69144;PMS7003;56251;50.324;17.574;2023-11-18T01:11:50;3;3;3
69144;PMS7003;56251;50.324;17.574;2023-11-18T01:13:57;12;5;3
69144;PMS7003;56251;50.324;17.574;2023-11-18T01:14:56;2;2;2
69144;PMS7003;56251;50.324;17.574;2023-11-18T01:17:03;4;4;3
69144;PMS7003;56251;50.324;17.574;2023-11-18T01:18:03;4;2;1
69144;PMS7003;56251;50.324;17.574;2023-11-18T01:20:10;9;6;6
69144;PMS7003;56251;50.324;17.574;2023-11-18T01:21:09;4;4;4
69144;PMS7003;56251;50.324;17.574;2023-11-18T01:23:18;3;3;3
69144;PMS7003;56251;50.324;17.574;2023-11-18T01:24:16;1;1;1
69144;PMS7003;56251;50.324;17.574;2023-11-18T01:26:25;3;2;2
69144;PMS7003;56251;50.324;17.574;2023-11-18T01:27:29;3;3;2
69144;PMS7003;56251;50.324;17.574;2023-11-18T01:29:32;5;4;3
69144;PMS7003;56251;50.324;17.574;2023-11-18T01:30:35;4;4;3
69144;PMS7003;56251;50.324;17.574;2023-11-18T01:32:39;9;4;4
69144;PMS7003;56251;50.324;17.574;2023-11-18T01:33:41;3;3;3
69144;PMS7003;56251;50.324;17.574;2023-11-18T01:35:45;3;3;2
69144;PMS7003;56251;50.324;17.574;2023-11-18T01:36:49;3;3;3
69144;PMS7003;56251;50.324;17.574;2023-11-18T01:38:51;5;5;4
69144;PMS7003;56251;50.324;17.574;2023-11-18T01:39:56;2;2;2
69144;PMS7003;56251;50.324;17.574;2023-11-18T01:41:59;3;3;3
69144;PMS7003;56251;50.324;17.574;2023-11-18T01:43:02;4;4;3
69144;PMS7003;56251;50.324;17.574;2023-11-18T01:45:12;6;6;3
69144;PMS7003;56251;50.324;17.574;2023-11-18T01:46:10;6;6;3
69144;PMS7003;56251;50.324;17.574;2023-11-18T01:48:20;4;4;4
69144;PMS7003;56251;50.324;17.574;2023-11-18T01:49:18;2;2;2
69144;PMS7003;56251;50.324;17.574;2023-11-18T01:51:28;5;5;4
69144;PMS7003;56251;50.324;17.574;2023-11-18T01:52:29;4;4;3
69144;PMS7003;56251;50.324;17.574;2023-11-18T01:54:36;5;4;4
69144;PMS7003;56251;50.324;17.574;2023-11-18T01:55:35;7;7;5
69144;PMS7003;56251;50.324;17.574;2023-11-18T01:57:44;2;2;2
69144;PMS7003;56251;50.324;17.574;2023-11-18T01:58:41;2;2;1
69144;PMS7003;56251;50.324;17.574;2023-11-18T02:00:51;5;5;3
69144;PMS7003;56251;50.324;17.574;2023-11-18T02:01:51;10;6;6
69144;PMS7003;56251;50.324;17.574;2023-11-18T02:04:03;3;3;2
69144;PMS7003;56251;50.324;17.574;2023-11-18T02:05:00;3;3;2
69144;PMS7003;56251;50.324;17.574;2023-11-18T02:07:11;3;3;2
69144;PMS7003;56251;50.324;17.574;2023-11-18T02:08:10;2;2;1
69144;PMS7003;56251;50.324;17.574;2023-11-18T02:10:19;4;3;2
69144;PMS7003;56251;50.324;17.574;2023-11-18T02:11:37;2;2;1
69144;PMS7003;56251;50.324;17.574;2023-11-18T02:13:29;9;5;2
69144;PMS7003;56251;50.324;17.574;2023-11-18T02:14:39;3;3;2
69144;PMS7003;56251;50.324;17.574;2023-11-18T02:16:37;2;2;1
69144;PMS7003;56251;50.324;17.574;2023-11-18T02:17:45;2;2;2
69144;PMS7003;56251;50.324;17.574;2023-11-18T02:19:44;1;1;1
69144;PMS7003;56251;50.324;17.574;2023-11-18T02:20:57;2;2;2
69144;PMS7003;56251;50.324;17.574;2023-11-18T02:22:55;4;4;4
69144;PMS7003;56251;50.324;17.574;2023-11-18T02:24:04;1;1;1
69144;PMS7003;56251;50.324;17.574;2023-11-18T02:26:04;2;2;2
69144;PMS7003;56251;50.324;17.574;2023-11-18T02:27:12;2;2;1
69144;PMS7003;56251;50.324;17.574;2023-11-18T02:29:11;2;2;2
69144;PMS7003;56251;50.324;17.574;2023-11-18T02:30:19;4;4;3
69144;PMS7003;56251;50.324;17.574;2023-11-18T02:32:18;2;2;1
69144;PMS7003;56251;50.324;17.574;2023-11-18T02:33:33;4;1;1
69144;PMS7003;56251;50.324;17.574;2023-11-18T02:35:31;2;2;2
69144;PMS7003;56251;50.324;17.574;2023-11-18T02:36:47;7;1;1
69144;PMS7003;56251;50.324;17.574;2023-11-18T02:38:44;4;4;3
69144;PMS7003;56251;50.324;17.574;2023-11-18T02:39:53;2;2;1
69144;PMS7003;56251;50.324;17.574;2023-11-18T02:41:51;2;2;2
69144;PMS7003;56251;50.324;17.574;2023-11-18T02:43:00;3;3;2
69144;PMS7003;56251;50.324;17.574;2023-11-18T02:45:04;4;4;4
69144;PMS7003;56251;50.324;17.574;2023-11-18T02:46:10;2;2;2
69144;PMS7003;56251;50.324;17.574;2023-11-18T02:48:12;3;3;3
69144;PMS7003;56251;50.324;17.574;2023-11-18T02:49:18;3;3;2
69144;PMS7003;56251;50.324;17.574;2023-11-18T02:51:20;3;3;2
69144;PMS7003;56251;50.324;17.574;2023-11-18T02:52:24;4;4;4
69144;PMS7003;56251;50.324;17.574;2023-11-18T02:54:27;1;1;1
69144;PMS7003;56251;50.324;17.574;2023-11-18T02:55:30;2;2;2
69144;PMS7003;56251;50.324;17.574;2023-11-18T02:57:37;3;3;2
69144;PMS7003;56251;50.324;17.574;2023-11-18T02:58:36;11;2;1
69144;PMS7003;56251;50.324;17.574;2023-11-18T03:00:41;4;4;3
69144;PMS7003;56251;50.324;17.574;2023-11-18T03:01:42;7;3;2
69144;PMS7003;56251;50.324;17.574;2023-11-18T03:03:52;4;2;1
69144;PMS7003;56251;50.324;17.574;2023-11-18T03:04:49;4;2;1
69144;PMS7003;56251;50.324;17.574;2023-11-18T03:06:59;8;4;3
69144;PMS7003;56251;50.324;17.574;2023-11-18T03:07:56;5;3;3
69144;PMS7003;56251;50.324;17.574;2023-11-18T03:10:06;10;6;4
69144;PMS7003;56251;50.324;17.574;2023-11-18T03:11:03;2;2;2
69144;PMS7003;56251;50.324;17.574;2023-11-18T03:13:14;4;4;3
69144;PMS7003;56251;50.324;17.574;2023-11-18T03:14:10;3;2;1
69144;PMS7003;56251;50.324;17.574;2023-11-18T03:16:21;2;2;2
69144;PMS7003;56251;50.324;17.574;2023-11-18T03:17:17;3;3;2
69144;PMS7003;56251;50.324;17.574;2023-11-18T03:19:27;4;4;3
69144;PMS7003;56251;50.324;17.574;2023-11-18T03:20:28;3;3;2
69144;PMS7003;56251;50.324;17.574;2023-11-18T03:22:34;5;5;3
69144;PMS7003;56251;50.324;17.574;2023-11-18T03:23:34;3;3;3
69144;PMS7003;56251;50.324;17.574;2023-11-18T03:25:40;3;3;3
69144;PMS7003;56251;50.324;17.574;2023-11-18T03:26:41;3;3;2
69144;PMS7003;56251;50.324;17.574;2023-11-18T03:28:46;3;3;2
69144;PMS7003;56251;50.324;17.574;2023-11-18T03:29:47;2;2;2
69144;PMS7003;56251;50.324;17.574;2023-11-18T03:31:52;6;6;5
69144;PMS7003;56251;50.324;17.574;2023-11-18T03:32:53;1;1;1
69144;PMS7003;56251;50.324;17.574;2023-11-18T03:34:59;3;3;3
69144;PMS7003;56251;50.324;17.574;2023-11-18T03:36:00;2;0;0
69144;PMS7003;56251;50.324;17.574;2023-11-18T03:38:05;8;3;3
69144;PMS7003;56251;50.324;17.574;2023-11-18T03:39:06;2;2;1
69144;PMS7003;56251;50.324;17.574;2023-11-18T03:41:11;2;2;1
69144;PMS7003;56251;50.324;17.574;2023-11-18T03:42:13;3;3;2
69144;PMS7003;56251;50.324;17.574;2023-11-18T03:44:18;10;2;2
69144;PMS7003;56251;50.324;17.574;2023-11-18T03:45:20;3;3;2
69144;PMS7003;56251;50.324;17.574;2023-11-18T03:47:24;4;4;3
69144;PMS7003;56251;50.324;17.574;2023-11-18T03:48:26;4;4;4
69144;PMS7003;56251;50.324;17.574;2023-11-18T03:50:30;4;4;3
69144;PMS7003;56251;50.324;17.574;2023-11-18T03:51:32;4;4;3
69144;PMS7003;56251;50.324;17.574;2023-11-18T03:53:37;4;2;1
69144;PMS7003;56251;50.324;17.574;2023-11-18T03:54:39;3;3;2
69144;PMS7003;56251;50.324;17.574;2023-11-18T03:56:43;4;4;3
69144;PMS7003;56251;50.324;17.574;2023-11-18T03:57:45;1;1;1
69144;PMS7003;56251;50.324;17.574;2023-11-18T03:59:49;2;2;1
69144;PMS7003;56251;50.324;17.574;2023-11-18T04:00:51;2;2;2
69144;PMS7003;56251;50.324;17.574;2023-11-18T04:02:56;1;1;1
69144;PMS7003;56251;50.324;17.574;2023-11-18T04:03:59;1;1;1
69144;PMS7003;56251;50.324;17.574;2023-11-18T04:06:02;8;3;3
69144;PMS7003;56251;50.324;17.574;2023-11-18T04:07:05;3;3;3
69144;PMS7003;56251;50.324;17.574;2023-11-18T04:09:09;1;1;1
69144;PMS7003;56251;50.324;17.574;2023-11-18T04:10:12;3;3;1
69144;PMS7003;56251;50.324;17.574;2023-11-18T04:12:15;4;4;3
69144;PMS7003;56251;50.324;17.574;2023-11-18T04:13:18;2;2;2
69144;PMS7003;56251;50.324;17.574;2023-11-18T04:15:22;3;3;1
69144;PMS7003;56251;50.324;17.574;2023-11-18T04:16:25;2;2;2
69144;PMS7003;56251;50.324;17.574;2023-11-18T04:18:29;2;2;2
69144;PMS7003;56251;50.324;17.574;2023-11-18T04:19:31;12;8;6
69144;PMS7003;56251;50.324;17.574;2023-11-18T04:21:36;5;0;0
69144;PMS7003;56251;50.324;17.574;2023-11-18T04:22:38;2;2;2
69144;PMS7003;56251;50.324;17.574;2023-11-18T04:24:48;3;3;3
69144;PMS7003;56251;50.324;17.574;2023-11-18T04:25:45;3;3;3
69144;PMS7003;56251;50.324;17.574;2023-11-18T04:27:55;22;12;8
69144;PMS7003;56251;50.324;17.574;2023-11-18T04:28:51;4;2;2
69144;PMS7003;56251;50.324;17.574;2023-11-18T04:31:02;10;10;5
69144;PMS7003;56251;50.324;17.574;2023-11-18T04:31:57;4;4;4
69144;PMS7003;56251;50.324;17.574;2023-11-18T04:34:09;3;3;2
69144;PMS7003;56251;50.324;17.574;2023-11-18T04:35:05;2;2;2
69144;PMS7003;56251;50.324;17.574;2023-11-18T04:37:15;16;16;9
69144;PMS7003;56251;50.324;17.574;2023-11-18T04:38:15;7;7;4
69144;PMS7003;56251;50.324;17.574;2023-11-18T04:40:22;7;7;4
69144;PMS7003;56251;50.324;17.574;2023-11-18T04:41:24;4;4;4
69144;PMS7003;56251;50.324;17.574;2023-11-18T04:43:28;9;9;5
69144;PMS7003;56251;50.324;17.574;2023-11-18T04:44:31;1;1;1
69144;PMS7003;56251;50.324;17.574;2023-11-18T04:46:35;2;2;2
69144;PMS7003;56251;50.324;17.574;2023-11-18T04:47:37;5;5;5
69144;PMS7003;56251;50.324;17.574;2023-11-18T04:49:42;3;3;3
69144;PMS7003;56251;50.324;17.574;2023-11-18T04:50:44;1;1;0
69144;PMS7003;56251;50.324;17.574;2023-11-18T04:52:48;3;1;1
69144;PMS7003;56251;50.324;17.574;2023-11-18T04:53:50;1;1;1
69144;PMS7003;56251;50.324;17.574;2023-11-18T04:55:55;2;2;1
69144;PMS7003;56251;50.324;17.574;2023-11-18T04:56:56;7;3;3
69144;PMS7003;56251;50.324;17.574;2023-11-18T04:59:02;3;3;3
69144;PMS7003;56251;50.324;17.574;2023-11-18T05:00:03;5;5;5
69144;PMS7003;56251;50.324;17.574;2023-11-18T05:02:12;1;1;1
69144;PMS7003;56251;50.324;17.574;2023-11-18T05:03:12;1;1;1
69144;PMS7003;56251;50.324;17.574;2023-11-18T05:05:18;1;1;1
69144;PMS7003;56251;50.324;17.574;2023-11-18T05:06:18;3;3;2
69144;PMS7003;56251;50.324;17.574;2023-11-18T05:08:25;1;1;1
69144;PMS7003;56251;50.324;17.574;2023-11-18T05:09:25;2;2;2
69144;PMS7003;56251;50.324;17.574;2023-11-18T05:11:31;1;1;1
69144;PMS7003;56251;50.324;17.574;2023-11-18T05:12:32;4;4;4
69144;PMS7003;56251;50.324;17.574;2023-11-18T05:14:37;3;3;2
69144;PMS7003;56251;50.324;17.574;2023-11-18T05:15:38;1;1;1
69144;PMS7003;56251;50.324;17.574;2023-11-18T05:17:44;1;1;1
69144;PMS7003;56251;50.324;17.574;2023-11-18T05:18:45;4;3;1
69144;PMS7003;56251;50.324;17.574;2023-11-18T05:20:50;3;3;3
69144;PMS7003;56251;50.324;17.574;2023-11-18T05:21:51;3;3;3
69144;PMS7003;56251;50.324;17.574;2023-11-18T05:23:56;1;1;1
69144;PMS7003;56251;50.324;17.574;2023-11-18T05:24:58;0;0;0
69144;PMS7003;56251;50.324;17.574;2023-11-18T05:27:02;6;5;4
69144;PMS7003;56251;50.324;17.574;2023-11-18T05:28:05;2;2;1
69144;PMS7003;56251;50.324;17.574;2023-11-18T05:30:09;4;4;1
69144;PMS7003;56251;50.324;17.574;2023-11-18T05:31:16;1;1;1
69144;PMS7003;56251;50.324;17.574;2023-11-18T05:33:20;0;0;0
69144;PMS7003;56251;50.324;17.574;2023-11-18T05:34:22;3;3;0
69144;PMS7003;56251;50.324;17.574;2023-11-18T05:36:24;0;0;0
69144;PMS7003;56251;50.324;17.574;2023-11-18T05:37:30;1;1;1
69144;PMS7003;56251;50.324;17.574;2023-11-18T05:39:34;2;2;2
69144;PMS7003;56251;50.324;17.574;2023-11-18T05:40:38;1;1;1
69144;PMS7003;56251;50.324;17.574;2023-11-18T05:42:42;1;1;1
69144;PMS7003;56251;50.324;17.574;2023-11-18T05:43:46;1;1;1
69144;PMS7003;56251;50.324;17.574;2023-11-18T05:45:50;3;3;3
69144;PMS7003;56251;50.324;17.574;2023-11-18T05:46:55;1;0;0
69144;PMS7003;56251;50.324;17.574;2023-11-18T05:49:25;2;2;1
69144;PMS7003;56251;50.324;17.574;2023-11-18T05:50:02;2;2;1
69144;PMS7003;56251;50.324;17.574;2023-11-18T05:52:31;8;1;1
69144;PMS7003;56251;50.324;17.574;2023-11-18T05:53:10;8;1;1
69144;PMS7003;56251;50.324;17.574;2023-11-18T05:55:38;1;1;1
69144;PMS7003;56251;50.324;17.574;2023-11-18T05:56:16;0;0;0
69144;PMS7003;56251;50.324;17.574;2023-11-18T05:58:44;3;3;2
69144;PMS7003;56251;50.324;17.574;2023-11-18T05:59:22;1;1;1
69144;PMS7003;56251;50.324;17.574;2023-11-18T06:01:51;7;3;3
69144;PMS7003;56251;50.324;17.574;2023-11-18T06:02:29;2;2;2
69144;PMS7003;56251;50.324;17.574;2023-11-18T06:04:57;0;0;0
69144;PMS7003;56251;50.324;17.574;2023-11-18T06:05:35;0;0;0
69144;PMS7003;56251;50.324;17.574;2023-11-18T06:08:03;3;3;3
69144;PMS7003;56251;50.324;17.574;2023-11-18T06:08:42;3;3;3
69144;PMS7003;56251;50.324;17.574;2023-11-18T06:11:13;1;1;1
69144;PMS7003;56251;50.324;17.574;2023-11-18T06:11:48;2;2;1
69144;PMS7003;56251;50.324;17.574;2023-11-18T06:14:20;5;2;2
69144;PMS7003;56251;50.324;17.574;2023-11-18T06:14:56;4;4;3
69144;PMS7003;56251;50.324;17.574;2023-11-18T06:17:27;1;1;1
69144;PMS7003;56251;50.324;17.574;2023-11-18T06:18:03;3;3;3
69144;PMS7003;56251;50.324;17.574;2023-11-18T06:20:34;1;1;1
69144;PMS7003;56251;50.324;17.574;2023-11-18T06:21:10;1;1;1
69144;PMS7003;56251;50.324;17.574;2023-11-18T06:23:41;2;2;2
69144;PMS7003;56251;50.324;17.574;2023-11-18T06:24:17;2;2;2
69144;PMS7003;56251;50.324;17.574;2023-11-18T06:26:48;5;3;1
69144;PMS7003;56251;50.324;17.574;2023-11-18T06:27:25;9;5;4
69144;PMS7003;56251;50.324;17.574;2023-11-18T06:29:55;3;3;3
69144;PMS7003;56251;50.324;17.574;2023-11-18T06:30:32;5;5;4
69144;PMS7003;56251;50.324;17.574;2023-11-18T06:33:01;2;2;2
69144;PMS7003;56251;50.324;17.574;2023-11-18T06:33:41;3;3;2
69144;PMS7003;56251;50.324;17.574;2023-11-18T06:36:16;7;7;6
69144;PMS7003;56251;50.324;17.574;2023-11-18T06:36:56;4;4;3
69144;PMS7003;56251;50.324;17.574;2023-11-18T06:39:16;3;3;2
69144;PMS7003;56251;50.324;17.574;2023-11-18T06:40:02;3;3;2
69144;PMS7003;56251;50.324;17.574;2023-11-18T06:42:29;4;4;2
69144;PMS7003;56251;50.324;17.574;2023-11-18T06:43:11;4;4;2
69144;PMS7003;56251;50.324;17.574;2023-11-18T06:45:36;4;4;3
69144;PMS7003;56251;50.324;17.574;2023-11-18T06:46:18;6;6;5
69144;PMS7003;56251;50.324;17.574;2023-11-18T06:48:42;3;3;1
69144;PMS7003;56251;50.324;17.574;2023-11-18T06:49:28;4;2;2
69144;PMS7003;56251;50.324;17.574;2023-11-18T06:51:49;3;3;2
69144;PMS7003;56251;50.324;17.574;2023-11-18T06:52:37;5;5;3
69144;PMS7003;56251;50.324;17.574;2023-11-18T06:54:56;4;4;4
69144;PMS7003;56251;50.324;17.574;2023-11-18T06:55:44;2;2;2
69144;PMS7003;56251;50.324;17.574;2023-11-18T06:58:02;1;1;0
69144;PMS7003;56251;50.324;17.574;2023-11-18T06:58:50;1;1;0
69144;PMS7003;56251;50.324;17.574;2023-11-18T07:01:09;6;6;3
69144;PMS7003;56251;50.324;17.574;2023-11-18T07:01:57;3;3;3
69144;PMS7003;56251;50.324;17.574;2023-11-18T07:04:16;6;6;3
69144;PMS7003;56251;50.324;17.574;2023-11-18T07:05:04;4;4;4
69144;PMS7003;56251;50.324;17.574;2023-11-18T07:07:22;1;1;1
69144;PMS7003;56251;50.324;17.574;2023-11-18T07:08:11;3;3;2
69144;PMS7003;56251;50.324;17.574;2023-11-18T07:10:28;7;3;2
69144;PMS7003;56251;50.324;17.574;2023-11-18T07:11:18;1;1;1
69144;PMS7003;56251;50.324;17.574;2023-11-18T07:13:34;4;4;3
69144;PMS7003;56251;50.324;17.574;2023-11-18T07:14:28;4;4;3
69144;PMS7003;56251;50.324;17.574;2023-11-18T07:16:41;3;3;3
69144;PMS7003;56251;50.324;17.574;2023-11-18T07:17:34;6;6;4
69144;PMS7003;56251;50.324;17.574;2023-11-18T07:19:49;1;1;1
69144;PMS7003;56251;50.324;17.574;2023-11-18T07:20:40;3;2;1
69144;PMS7003;56251;50.324;17.574;2023-11-18T07:22:55;2;2;2
69144;PMS7003;56251;50.324;17.574;2023-11-18T07:23:47;1;1;0
69144;PMS7003;56251;50.324;17.574;2023-11-18T07:26:01;3;3;3
69144;PMS7003;56251;50.324;17.574;2023-11-18T07:26:53;2;2;1
69144;PMS7003;56251;50.324;17.574;2023-11-18T07:29:09;1;1;0
69144;PMS7003;56251;50.324;17.574;2023-11-18T07:30:00;1;1;0
69144;PMS7003;56251;50.324;17.574;2023-11-18T07:32:15;1;1;1
69144;PMS7003;56251;50.324;17.574;2023-11-18T07:33:05;2;2;1
69144;PMS7003;56251;50.324;17.574;2023-11-18T07:35:23;1;1;1
69144;PMS7003;56251;50.324;17.574;2023-11-18T07:36:13;1;1;1
69144;PMS7003;56251;50.324;17.574;2023-11-18T07:38:29;1;1;1
69144;PMS7003;56251;50.324;17.574;2023-11-18T07:39:20;2;2;2
69144;PMS7003;56251;50.324;17.574;2023-11-18T07:41:37;6;3;1
69144;PMS7003;56251;50.324;17.574;2023-11-18T07:42:28;3;3;2
69144;PMS7003;56251;50.324;17.574;2023-11-18T07:44:43;3;2;2
69144;PMS7003;56251;50.324;17.574;2023-11-18T07:45:43;8;4;3
69144;PMS7003;56251;50.324;17.574;2023-11-18T07:47:55;3;3;3
69144;PMS7003;56251;50.324;17.574;2023-11-18T07:48:50;3;3;3
69144;PMS7003;56251;50.324;17.574;2023-11-18T07:51:02;3;3;2
69144;PMS7003;56251;50.324;17.574;2023-11-18T07:51:57;1;1;1
69144;PMS7003;56251;50.324;17.574;2023-11-18T07:54:09;5;5;5
69144;PMS7003;56251;50.324;17.574;2023-11-18T07:55:04;3;3;3
69144;PMS7003;56251;50.324;17.574;2023-11-18T07:57:15;10;7;5
69144;PMS7003;56251;50.324;17.574;2023-11-18T07:58:11;6;6;3
69144;PMS7003;56251;50.324;17.574;2023-11-18T08:00:21;5;5;4
69144;PMS7003;56251;50.324;17.574;2023-11-18T08:01:17;5;5;4
69144;PMS7003;56251;50.324;17.574;2023-11-18T08:03:29;6;6;4
69144;PMS7003;56251;50.324;17.574;2023-11-18T08:04:30;5;5;4
69144;PMS7003;56251;50.324;17.574;2023-11-18T08:06:42;11;10;9
69144;PMS7003;56251;50.324;17.574;2023-11-18T08:07:37;11;10;9
69144;PMS7003;56251;50.324;17.574;2023-11-18T08:09:48;4;4;4
69144;PMS7003;56251;50.324;17.574;2023-11-18T08:10:43;8;8;6
69144;PMS7003;56251;50.324;17.574;2023-11-18T08:12:55;3;3;2
69144;PMS7003;56251;50.324;17.574;2023-11-18T08:13:50;6;6;5
69144;PMS7003;56251;50.324;17.574;2023-11-18T08:16:01;6;5;4
69144;PMS7003;56251;50.324;17.574;2023-11-18T08:16:57;2;2;1
69144;PMS7003;56251;50.324;17.574;2023-11-18T08:19:07;15;8;5
69144;PMS7003;56251;50.324;17.574;2023-11-18T08:20:05;7;7;5
69144;PMS7003;56251;50.324;17.574;2023-11-18T08:22:13;7;7;6
69144;PMS7003;56251;50.324;17.574;2023-11-18T08:23:16;13;9;4
69144;PMS7003;56251;50.324;17.574;2023-11-18T08:25:21;7;4;4
69144;PMS7003;56251;50.324;17.574;2023-11-18T08:26:24;9;9;6
69144;PMS7003;56251;50.324;17.574;2023-11-18T08:28:27;10;7;5
69144;PMS7003;56251;50.324;17.574;2023-11-18T08:29:32;13;10;7
69144;PMS7003;56251;50.324;17.574;2023-11-18T08:31:33;9;8;4
69144;PMS7003;56251;50.324;17.574;2023-11-18T08:32:38;12;11;7
69144;PMS7003;56251;50.324;17.574;2023-11-18T08:34:40;10;10;8
69144;PMS7003;56251;50.324;17.574;2023-11-18T08:35:46;21;14;7
69144;PMS7003;56251;50.324;17.574;2023-11-18T08:37:46;8;8;7
69144;PMS7003;56251;50.324;17.574;2023-11-18T08:38:53;2;2;2
69144;PMS7003;56251;50.324;17.574;2023-11-18T08:40:53;6;4;3
69144;PMS7003;56251;50.324;17.574;2023-11-18T08:42:01;6;6;4
69144;PMS7003;56251;50.324;17.574;2023-11-18T08:44:00;7;7;6
69144;PMS7003;56251;50.324;17.574;2023-11-18T08:45:07;9;9;6
69144;PMS7003;56251;50.324;17.574;2023-11-18T08:47:07;5;5;4
69144;PMS7003;56251;50.324;17.574;2023-11-18T08:48:15;8;8;7
69144;PMS7003;56251;50.324;17.574;2023-11-18T08:50:16;9;8;6
69144;PMS7003;56251;50.324;17.574;2023-11-18T08:51:23;9;8;5
69144;PMS7003;56251;50.324;17.574;2023-11-18T08:53:23;11;11;7
69144;PMS7003;56251;50.324;17.574;2023-11-18T08:54:31;6;6;5
69144;PMS7003;56251;50.324;17.574;2023-11-18T08:56:34;11;11;5
69144;PMS7003;56251;50.324;17.574;2023-11-18T08:57:46;6;6;3
69144;PMS7003;56251;50.324;17.574;2023-11-18T08:59:40;8;8;6
69144;PMS7003;56251;50.324;17.574;2023-11-18T09:01:05;9;9;6
69144;PMS7003;56251;50.324;17.574;2023-11-18T09:02:47;10;10;7
69144;PMS7003;56251;50.324;17.574;2023-11-18T09:04:18;4;4;4
69144;PMS7003;56251;50.324;17.574;2023-11-18T09:05:54;13;13;10
69144;PMS7003;56251;50.324;17.574;2023-11-18T09:07:26;16;15;10
69144;PMS7003;56251;50.324;17.574;2023-11-18T09:09:04;10;10;6
69144;PMS7003;56251;50.324;17.574;2023-11-18T09:10:32;15;15;9
69144;PMS7003;56251;50.324;17.574;2023-11-18T09:12:12;9;4;2
69144;PMS7003;56251;50.324;17.574;2023-11-18T09:13:39;11;10;7
69144;PMS7003;56251;50.324;17.574;2023-11-18T09:15:21;15;14;11
69144;PMS7003;56251;50.324;17.574;2023-11-18T09:16:46;11;8;6
69144;PMS7003;56251;50.324;17.574;2023-11-18T09:18:28;8;8;5
69144;PMS7003;56251;50.324;17.574;2023-11-18T09:19:52;14;12;7
69144;PMS7003;56251;50.324;17.574;2023-11-18T09:21:36;18;11;7
69144;PMS7003;56251;50.324;17.574;2023-11-18T09:22:59;8;8;5
69144;PMS7003;56251;50.324;17.574;2023-11-18T09:24:43;10;10;7
69144;PMS7003;56251;50.324;17.574;2023-11-18T09:26:07;16;11;8
69144;PMS7003;56251;50.324;17.574;2023-11-18T09:27:49;13;13;8
69144;PMS7003;56251;50.324;17.574;2023-11-18T09:29:14;13;13;9
69144;PMS7003;56251;50.324;17.574;2023-11-18T09:30:58;20;17;13
69144;PMS7003;56251;50.324;17.574;2023-11-18T09:32:23;9;9;8
69144;PMS7003;56251;50.324;17.574;2023-11-18T09:34:07;10;10;5
69144;PMS7003;56251;50.324;17.574;2023-11-18T09:35:31;9;9;7
69144;PMS7003;56251;50.324;17.574;2023-11-18T09:37:15;6;5;5
69144;PMS7003;56251;50.324;17.574;2023-11-18T09:38:39;8;7;6
69144;PMS7003;56251;50.324;17.574;2023-11-18T09:40:21;10;10;7
69144;PMS7003;56251;50.324;17.574;2023-11-18T09:41:46;7;6;6
69144;PMS7003;56251;50.324;17.574;2023-11-18T09:43:31;11;9;7
69144;PMS7003;56251;50.324;17.574;2023-11-18T09:44:54;10;8;5
69144;PMS7003;56251;50.324;17.574;2023-11-18T09:46:56;7;7;5
69144;PMS7003;56251;50.324;17.574;2023-11-18T09:48:02;14;14;10
69144;PMS7003;56251;50.324;17.574;2023-11-18T09:50:05;10;7;5
69144;PMS7003;56251;50.324;17.574;2023-11-18T09:51:19;19;9;7
69144;PMS7003;56251;50.324;17.574;2023-11-18T09:53:14;12;12;6
69144;PMS7003;56251;50.324;17.574;2023-11-18T09:57:37;6;4;4
69144;PMS7003;56251;50.324;17.574;2023-11-18T10:00:06;23;11;7
69144;PMS7003;56251;50.324;17.574;2023-11-18T10:00:45;6;6;6
69144;PMS7003;56251;50.324;17.574;2023-11-18T10:03:26;8;6;5
69144;PMS7003;56251;50.324;17.574;2023-11-18T10:03:55;9;8;5
69144;PMS7003;56251;50.324;17.574;2023-11-18T10:06:35;19;12;6
69144;PMS7003;56251;50.324;17.574;2023-11-18T10:07:03;19;12;6
69144;PMS7003;56251;50.324;17.574;2023-11-18T10:09:45;6;6;4
69144;PMS7003;56251;50.324;17.574;2023-11-18T10:10:10;6;6;4
69144;PMS7003;56251;50.324;17.574;2023-11-18T10:12:54;7;7;5
69144;PMS7003;56251;50.324;17.574;2023-11-18T10:13:22;7;7;5
69144;PMS7003;56251;50.324;17.574;2023-11-18T10:16:08;10;10;7
69144;PMS7003;56251;50.324;17.574;2023-11-18T10:16:29;10;10;7
69144;PMS7003;56251;50.324;17.574;2023-11-18T10:19:16;13;10;6
69144;PMS7003;56251;50.324;17.574;2023-11-18T10:19:52;11;7;5
69144;PMS7003;56251;50.324;17.574;2023-11-18T10:22:24;13;9;6
69144;PMS7003;56251;50.324;17.574;2023-11-18T10:23:08;10;9;7